createdAt,value
2017-09-09T00:02:05.659Z,88.20
2017-09-09T00:04:33.461Z,87.70
2017-09-09T00:07:01.325Z,87.70
2017-09-09T00:09:29.189Z,87.70
2017-09-09T00:11:57.052Z,88.30
2017-09-09T00:14:24.917Z,88.30
2017-09-09T00:16:52.780Z,88.20
2017-09-09T00:19:20.645Z,88.00
2017-09-09T00:21:48.507Z,88.30
2017-09-09T00:24:17.292Z,88.90
2017-09-09T00:26:45.156Z,89.00
2017-09-09T00:29:12.983Z,89.80
2017-09-09T00:31:40.783Z,89.90
2017-09-09T00:34:08.647Z,90.00
2017-09-09T00:36:36.509Z,90.10
2017-09-09T00:39:04.373Z,90.30
2017-09-09T00:41:32.244Z,90.50
2017-09-09T00:44:00.107Z,90.80
2017-09-09T00:46:27.965Z,90.90
2017-09-09T00:48:55.829Z,91.20
2017-09-09T00:51:23.655Z,91.70
2017-09-09T00:53:51.456Z,92.20
2017-09-09T00:56:19.318Z,92.00
2017-09-09T00:58:47.182Z,92.00
2017-09-09T01:01:15.045Z,92.20
2017-09-09T01:03:42.912Z,92.20
2017-09-09T01:06:10.777Z,92.60
2017-09-09T01:08:38.641Z,93.20
2017-09-09T01:11:06.503Z,93.30
2017-09-09T01:13:34.366Z,93.50
2017-09-09T01:16:02.127Z,93.60
2017-09-09T01:18:29.992Z,93.70
2017-09-09T01:20:57.855Z,94.00
2017-09-09T01:23:25.719Z,94.00
2017-09-09T01:25:53.585Z,94.30
2017-09-09T01:28:21.448Z,94.30
2017-09-09T01:30:49.310Z,94.20
2017-09-09T01:33:17.174Z,94.10
2017-09-09T01:35:45.042Z,94.10
2017-09-09T01:38:13.583Z,93.80
2017-09-09T01:40:41.381Z,93.80
2017-09-09T01:43:09.245Z,93.50
2017-09-09T01:45:37.108Z,93.70
2017-09-09T01:48:04.973Z,93.80
2017-09-09T01:50:32.837Z,93.60
2017-09-09T01:53:00.700Z,93.70
2017-09-09T01:55:28.565Z,93.70
2017-09-09T01:57:56.389Z,93.60
2017-09-09T02:00:24.223Z,93.70
2017-09-09T02:02:52.871Z,93.60
2017-09-09T02:05:20.738Z,93.60
2017-09-09T02:07:48.605Z,93.60
2017-09-09T02:10:16.463Z,93.50
2017-09-09T02:12:44.330Z,93.50
2017-09-09T02:15:12.091Z,93.60
2017-09-09T02:17:39.955Z,93.30
2017-09-09T02:20:07.818Z,93.50
2017-09-09T02:22:35.682Z,93.40
2017-09-09T02:25:03.547Z,93.50
2017-09-09T02:27:31.410Z,93.90
2017-09-09T02:29:59.273Z,93.90
2017-09-09T02:32:27.138Z,94.10
2017-09-09T02:34:55.003Z,94.10
2017-09-09T02:37:22.866Z,94.30
2017-09-09T02:39:50.731Z,94.20
2017-09-09T02:42:18.592Z,93.80
2017-09-09T02:44:46.459Z,93.60
2017-09-09T02:47:14.321Z,93.40
2017-09-09T02:49:42.186Z,93.40
2017-09-09T02:52:10.049Z,93.70
2017-09-09T02:54:37.913Z,94.00
2017-09-09T02:57:05.776Z,94.30
2017-09-09T02:59:33.606Z,94.70
2017-09-09T03:02:01.505Z,95.00
2017-09-09T03:04:29.368Z,95.20
2017-09-09T03:06:57.232Z,95.50
2017-09-09T03:09:25.097Z,95.30
2017-09-09T03:11:52.960Z,95.20
2017-09-09T03:14:20.824Z,95.00
2017-09-09T03:16:48.687Z,94.90
2017-09-09T03:19:16.552Z,94.70
2017-09-09T03:21:44.416Z,94.30
2017-09-09T03:24:12.281Z,94.30
2017-09-09T03:26:40.144Z,94.30
2017-09-09T03:29:08.009Z,94.00
2017-09-09T03:31:35.870Z,93.60
2017-09-09T03:34:03.735Z,93.60
2017-09-09T03:36:31.561Z,93.60
2017-09-09T03:38:59.464Z,93.60
2017-09-09T03:41:27.329Z,93.70
2017-09-09T03:43:55.191Z,93.70
2017-09-09T03:46:23.055Z,93.90
2017-09-09T03:48:50.920Z,94.20
2017-09-09T03:51:18.785Z,94.40
2017-09-09T03:53:46.646Z,94.30
2017-09-09T03:56:14.511Z,93.80
2017-09-09T03:58:42.374Z,93.70
2017-09-09T04:01:10.138Z,93.80
2017-09-09T04:03:38.002Z,93.80
2017-09-09T04:06:06.542Z,94.00
2017-09-09T04:08:34.344Z,94.00
2017-09-09T04:11:02.106Z,93.70
2017-09-09T04:13:29.968Z,93.50
2017-09-09T04:15:57.831Z,93.80
2017-09-09T04:18:25.694Z,93.90
2017-09-09T04:20:54.071Z,94.00
2017-09-09T04:23:21.935Z,94.00
2017-09-09T04:25:49.799Z,94.30
2017-09-09T04:28:17.867Z,94.50
2017-09-09T04:30:45.736Z,94.70
2017-09-09T04:33:13.560Z,94.80
2017-09-09T04:35:41.357Z,94.90
2017-09-09T04:38:09.221Z,95.10
2017-09-09T04:40:37.086Z,94.90
2017-09-09T04:43:04.950Z,94.80
2017-09-09T04:45:33.497Z,94.30
2017-09-09T04:48:01.394Z,94.30
2017-09-09T04:50:29.259Z,94.10
2017-09-09T04:52:57.121Z,93.80
2017-09-09T04:55:24.985Z,93.90
2017-09-09T04:57:52.849Z,94.00
2017-09-09T05:00:20.722Z,93.40
2017-09-09T05:02:48.576Z,93.10
2017-09-09T05:05:16.440Z,92.80
2017-09-09T05:07:44.306Z,92.80
2017-09-09T05:10:16.616Z,92.80
2017-09-09T05:12:44.437Z,92.60
2017-09-09T05:15:12.301Z,92.50
2017-09-09T05:17:41.290Z,92.20
2017-09-09T05:20:09.206Z,92.00
2017-09-09T05:22:37.121Z,91.50
2017-09-09T05:25:04.984Z,91.30
2017-09-09T05:27:32.848Z,91.10
2017-09-09T05:30:00.711Z,90.90
2017-09-09T05:32:28.576Z,89.80
2017-09-09T05:34:56.440Z,88.60
2017-09-09T05:37:24.921Z,87.80
2017-09-09T05:39:52.782Z,85.20
2017-09-09T05:42:20.656Z,80.10
2017-09-09T05:44:48.513Z,76.70
2017-09-09T05:47:16.374Z,74.80
2017-09-09T05:49:44.237Z,72.90
2017-09-09T05:52:11.998Z,74.30
2017-09-09T05:54:39.862Z,71.00
2017-09-09T05:57:07.729Z,67.00
2017-09-09T05:59:35.597Z,65.00
2017-09-09T06:02:03.456Z,61.20
2017-09-09T06:04:31.320Z,56.90
2017-09-09T06:06:59.185Z,53.50
2017-09-09T06:09:27.049Z,50.60
2017-09-09T06:11:54.914Z,50.60
2017-09-09T06:14:22.777Z,54.40
2017-09-09T06:16:50.641Z,56.10
2017-09-09T06:19:18.502Z,58.10
2017-09-09T06:21:46.369Z,57.90
2017-09-09T06:24:14.332Z,54.00
2017-09-09T06:26:42.196Z,51.10
2017-09-09T06:29:10.061Z,52.30
2017-09-09T06:31:37.924Z,53.10
2017-09-09T06:34:05.787Z,53.50
2017-09-09T06:36:33.653Z,53.20
2017-09-09T06:39:01.478Z,47.10
2017-09-09T06:41:29.278Z,44.50
2017-09-09T06:43:57.144Z,40.80
2017-09-09T06:46:25.005Z,38.50
2017-09-09T06:48:52.875Z,38.40
2017-09-09T06:51:20.734Z,37.80
2017-09-09T06:53:48.597Z,36.60
2017-09-09T06:56:16.463Z,33.50
2017-09-09T06:58:44.327Z,32.10
2017-09-09T07:01:12.192Z,29.20
2017-09-09T07:03:40.054Z,27.50
2017-09-09T07:06:07.921Z,29.20
2017-09-09T07:08:35.782Z,29.30
2017-09-09T07:11:03.645Z,29.70
2017-09-09T07:13:31.510Z,28.60
2017-09-09T07:15:59.373Z,27.20
2017-09-09T07:18:27.237Z,26.40
2017-09-09T07:20:55.102Z,26.20
2017-09-09T07:23:22.968Z,26.90
2017-09-09T07:25:50.829Z,25.80
2017-09-09T07:28:18.693Z,25.00
2017-09-09T07:30:46.558Z,23.90
2017-09-09T07:33:14.421Z,24.70
2017-09-09T07:35:42.284Z,23.80
2017-09-09T07:38:10.148Z,23.30
2017-09-09T07:40:38.014Z,23.70
2017-09-09T07:43:05.877Z,23.70
2017-09-09T07:45:33.742Z,22.80
2017-09-09T07:48:01.605Z,22.90
2017-09-09T07:50:29.468Z,21.00
2017-09-09T07:52:57.332Z,20.60
2017-09-09T07:55:25.197Z,20.50
2017-09-09T07:57:53.060Z,22.80
2017-09-09T08:00:20.925Z,22.50
2017-09-09T08:02:48.795Z,21.70
2017-09-09T08:05:16.652Z,21.00
2017-09-09T08:07:44.514Z,21.50
2017-09-09T08:10:12.384Z,22.10
2017-09-09T08:12:40.243Z,22.80
2017-09-09T08:15:08.106Z,21.20
2017-09-09T08:17:35.972Z,21.70
2017-09-09T08:20:03.837Z,20.60
2017-09-09T08:22:31.700Z,21.40
2017-09-09T08:24:59.569Z,22.80
2017-09-09T08:27:27.427Z,22.00
2017-09-09T08:29:55.291Z,19.90
2017-09-09T08:32:23.154Z,19.40
2017-09-09T08:34:51.020Z,18.70
2017-09-09T08:37:18.884Z,18.70
2017-09-09T08:39:46.749Z,21.30
2017-09-09T08:42:14.610Z,21.80
2017-09-09T08:44:42.476Z,20.90
2017-09-09T08:47:10.339Z,21.20
2017-09-09T08:49:38.204Z,21.80
2017-09-09T08:52:06.068Z,19.60
2017-09-09T08:54:34.646Z,19.90
2017-09-09T08:57:02.512Z,19.90
2017-09-09T08:59:30.380Z,19.70
2017-09-09T09:01:58.238Z,20.00
2017-09-09T09:04:26.102Z,20.10
2017-09-09T09:06:53.966Z,20.20
2017-09-09T09:09:21.830Z,19.50
2017-09-09T09:11:49.694Z,19.00
2017-09-09T09:14:17.559Z,18.70
2017-09-09T09:16:45.422Z,19.90
2017-09-09T09:19:13.287Z,19.80
2017-09-09T09:21:41.151Z,22.50
2017-09-09T09:24:09.014Z,22.90
2017-09-09T09:26:36.885Z,22.90
2017-09-09T09:29:04.742Z,23.30
2017-09-09T09:31:32.605Z,25.90
2017-09-09T09:34:00.471Z,28.80
2017-09-09T09:36:28.333Z,28.80
2017-09-09T09:38:56.199Z,28.40
2017-09-09T09:41:24.061Z,29.20
2017-09-09T09:43:51.926Z,29.20
2017-09-09T09:46:19.788Z,29.50
2017-09-09T09:48:47.654Z,30.90
2017-09-09T09:51:15.519Z,32.80
2017-09-09T09:53:43.344Z,33.50
2017-09-09T09:56:11.143Z,31.70
2017-09-09T09:58:39.015Z,34.40
2017-09-09T10:01:06.872Z,31.30
2017-09-09T10:03:34.736Z,34.20
2017-09-09T10:06:02.598Z,34.70
2017-09-09T10:08:30.466Z,35.00
2017-09-09T10:10:58.327Z,34.70
2017-09-09T10:13:26.190Z,35.40
2017-09-09T10:15:54.056Z,33.00
2017-09-09T10:18:21.919Z,34.50
2017-09-09T10:20:49.783Z,34.20
2017-09-09T10:23:17.646Z,34.70
2017-09-09T10:25:55.412Z,33.70
2017-09-09T10:28:23.205Z,34.90
2017-09-09T10:30:51.068Z,33.10
2017-09-09T10:33:18.932Z,35.40
2017-09-09T10:35:46.796Z,35.30
2017-09-09T10:38:14.663Z,36.50
2017-09-09T10:40:42.526Z,35.30
2017-09-09T10:43:10.388Z,36.90
2017-09-09T10:45:38.253Z,36.20
2017-09-09T10:48:06.117Z,35.60
2017-09-09T10:50:33.988Z,35.50
2017-09-09T10:53:02.560Z,33.80
2017-09-09T10:55:30.605Z,33.80
2017-09-09T10:57:58.391Z,34.20
2017-09-09T11:00:26.467Z,32.80
2017-09-09T11:02:54.338Z,33.50
2017-09-09T11:05:22.188Z,32.70
2017-09-09T11:07:50.051Z,32.80
2017-09-09T11:10:17.916Z,33.40
2017-09-09T11:12:45.779Z,33.40
2017-09-09T11:15:13.644Z,35.60
2017-09-09T11:17:41.506Z,34.30
2017-09-09T11:20:09.330Z,34.20
2017-09-09T11:22:37.132Z,32.90
2017-09-09T11:25:04.996Z,32.90
2017-09-09T11:27:32.967Z,34.60
2017-09-09T11:30:00.930Z,34.40
2017-09-09T11:32:28.794Z,34.00
2017-09-09T11:34:56.760Z,33.80
2017-09-09T11:37:24.623Z,33.50
2017-09-09T11:39:53.308Z,33.90
2017-09-09T11:42:21.171Z,32.70
2017-09-09T11:44:50.161Z,33.70
2017-09-09T11:47:18.024Z,33.70
2017-09-09T11:49:45.888Z,33.30
2017-09-09T11:52:13.855Z,32.80
2017-09-09T11:54:42.437Z,33.60
2017-09-09T11:57:10.504Z,32.40
2017-09-09T11:59:38.368Z,33.40
2017-09-09T12:02:06.235Z,33.10
2017-09-09T12:04:34.099Z,32.20
2017-09-09T12:07:01.859Z,33.60
2017-09-09T12:09:30.540Z,32.10
2017-09-09T12:11:59.291Z,32.10
2017-09-09T12:14:27.088Z,32.20
2017-09-09T12:16:54.952Z,33.20
2017-09-09T12:19:22.817Z,33.80
2017-09-09T12:21:50.679Z,34.40
2017-09-09T12:24:18.544Z,34.00
2017-09-09T12:26:46.408Z,32.30
2017-09-09T12:29:14.294Z,32.60
2017-09-09T12:31:42.135Z,35.40
2017-09-09T12:34:09.999Z,33.00
2017-09-09T12:36:37.863Z,31.30
2017-09-09T12:39:05.690Z,32.20
2017-09-09T12:41:33.593Z,31.80
2017-09-09T12:44:01.455Z,30.70
2017-09-09T12:46:29.278Z,30.30
2017-09-09T12:48:57.101Z,30.50
2017-09-09T12:51:25.662Z,30.10
2017-09-09T12:53:53.525Z,29.90
2017-09-09T12:56:21.389Z,29.70
2017-09-09T12:58:49.254Z,30.30
2017-09-09T13:01:17.116Z,30.90
2017-09-09T13:03:44.981Z,30.20
2017-09-09T13:06:12.844Z,30.90
2017-09-09T13:08:40.710Z,31.90
2017-09-09T13:11:08.578Z,30.40
2017-09-09T13:13:36.436Z,29.70
2017-09-09T13:16:04.301Z,30.70
2017-09-09T13:18:32.164Z,30.20
2017-09-09T13:21:00.028Z,31.40
2017-09-09T13:23:27.894Z,29.90
2017-09-09T13:25:55.756Z,30.70
2017-09-09T13:28:23.619Z,31.90
2017-09-09T13:30:51.486Z,31.60
2017-09-09T13:33:19.311Z,31.80
2017-09-09T13:35:47.292Z,30.70
2017-09-09T13:38:15.077Z,33.30
2017-09-09T13:40:42.939Z,33.40
2017-09-09T13:43:10.804Z,32.60
2017-09-09T13:45:38.669Z,32.90
2017-09-09T13:48:06.531Z,33.30
2017-09-09T13:50:34.398Z,34.50
2017-09-09T13:53:02.260Z,33.90
2017-09-09T13:55:30.123Z,33.70
2017-09-09T13:57:57.987Z,35.80
2017-09-09T14:00:25.851Z,33.00
2017-09-09T14:02:53.734Z,33.90
2017-09-09T14:05:21.579Z,33.50
2017-09-09T14:07:49.445Z,34.20
2017-09-09T14:10:17.274Z,34.50
2017-09-09T14:12:45.172Z,34.00
2017-09-09T14:15:13.041Z,34.00
2017-09-09T14:17:40.900Z,35.00
2017-09-09T14:20:08.762Z,34.90
2017-09-09T14:22:36.629Z,35.00
2017-09-09T14:25:04.490Z,36.00
2017-09-09T14:27:32.354Z,36.00
2017-09-09T14:30:00.218Z,36.20
2017-09-09T14:32:28.084Z,36.40
2017-09-09T14:34:55.946Z,35.70
2017-09-09T14:37:23.812Z,35.10
2017-09-09T14:39:51.572Z,35.60
2017-09-09T14:42:19.436Z,35.00
2017-09-09T14:44:47.264Z,34.30
2017-09-09T14:47:15.165Z,35.00
2017-09-09T14:49:43.028Z,34.50
2017-09-09T14:52:10.891Z,35.00
2017-09-09T14:54:38.756Z,35.00
2017-09-09T14:57:06.825Z,35.00
2017-09-09T14:59:34.898Z,34.80
2017-09-09T15:02:02.967Z,34.00
2017-09-09T15:04:31.035Z,32.80
2017-09-09T15:06:59.410Z,33.20
2017-09-09T15:09:27.272Z,35.10
2017-09-09T15:11:55.139Z,33.60
2017-09-09T15:14:23.108Z,34.50
2017-09-09T15:16:51.816Z,33.90
2017-09-09T15:19:20.675Z,34.50
2017-09-09T15:21:52.020Z,33.50
2017-09-09T15:24:20.919Z,33.80
2017-09-09T15:26:51.740Z,33.20
2017-09-09T15:29:24.592Z,33.40
2017-09-09T15:31:52.593Z,34.50
2017-09-09T15:34:20.449Z,33.80
2017-09-09T15:36:48.377Z,33.50
2017-09-09T15:39:16.279Z,34.00
2017-09-09T15:41:44.980Z,34.80
2017-09-09T15:44:12.826Z,35.10
2017-09-09T15:46:40.691Z,35.00
2017-09-09T15:49:08.555Z,35.00
2017-09-09T15:51:36.421Z,35.00
2017-09-09T15:54:04.695Z,35.20
2017-09-09T15:56:33.378Z,35.80
2017-09-09T15:59:01.203Z,35.80
2017-09-09T16:01:29.002Z,35.60
2017-09-09T16:03:56.878Z,35.80
2017-09-09T16:06:24.728Z,36.70
2017-09-09T16:08:52.695Z,38.30
2017-09-09T16:11:20.681Z,37.70
2017-09-09T16:13:49.343Z,38.00
2017-09-09T16:16:18.033Z,40.30
2017-09-09T16:18:45.903Z,40.20
2017-09-09T16:21:13.760Z,38.30
2017-09-09T16:23:41.617Z,38.50
2017-09-09T16:26:09.482Z,38.90
2017-09-09T16:28:37.347Z,39.60
2017-09-09T16:31:05.171Z,39.00
2017-09-09T16:33:33.884Z,39.60
2017-09-09T16:36:01.657Z,39.80
2017-09-09T16:38:30.235Z,40.90
2017-09-09T16:40:58.099Z,40.90
2017-09-09T16:43:25.961Z,42.00
2017-09-09T16:45:53.891Z,42.40
2017-09-09T16:48:21.690Z,43.40
2017-09-09T16:50:49.456Z,44.00
2017-09-09T16:53:17.316Z,45.30
2017-09-09T16:55:45.139Z,44.60
2017-09-09T16:58:14.280Z,44.90
2017-09-09T17:00:42.136Z,47.10
2017-09-09T17:03:10.002Z,45.80
2017-09-09T17:05:37.865Z,46.60
2017-09-09T17:08:05.729Z,46.60
2017-09-09T17:10:34.468Z,49.10
2017-09-09T17:13:02.377Z,49.00
2017-09-09T17:15:30.241Z,49.00
2017-09-09T17:17:58.106Z,49.40
2017-09-09T17:20:26.799Z,49.20
2017-09-09T17:22:54.618Z,50.90
2017-09-09T17:25:22.417Z,50.50
2017-09-09T17:27:50.426Z,50.50
2017-09-09T17:30:19.134Z,53.50
2017-09-09T17:32:46.899Z,52.90
2017-09-09T17:35:14.898Z,51.90
2017-09-09T17:37:42.759Z,52.20
2017-09-09T17:40:11.038Z,53.50
2017-09-09T17:42:38.896Z,54.30
2017-09-09T17:45:07.071Z,55.80
2017-09-09T17:47:35.036Z,57.10
2017-09-09T17:50:02.897Z,58.40
2017-09-09T17:52:30.870Z,60.40
2017-09-09T17:54:59.651Z,62.40
2017-09-09T17:57:27.513Z,62.30
2017-09-09T17:59:55.584Z,62.90
2017-09-09T18:02:23.447Z,63.10
2017-09-09T18:04:51.310Z,63.20
2017-09-09T18:07:19.135Z,64.50
2017-09-09T18:09:47.699Z,66.50
2017-09-09T18:12:16.438Z,68.30
2017-09-09T18:14:44.301Z,68.20
2017-09-09T18:17:12.165Z,68.40
2017-09-09T18:19:40.030Z,68.80
2017-09-09T18:22:07.893Z,67.70
2017-09-09T18:24:35.758Z,68.30
2017-09-09T18:27:03.588Z,68.60
2017-09-09T18:29:31.382Z,69.00
2017-09-09T18:31:59.350Z,70.60
2017-09-09T18:34:27.212Z,70.50
2017-09-09T18:36:55.077Z,73.30
2017-09-09T18:39:22.941Z,74.40
2017-09-09T18:41:50.804Z,74.00
2017-09-09T18:44:19.811Z,75.30
2017-09-09T18:46:48.375Z,78.00
2017-09-09T18:49:16.240Z,78.00
2017-09-09T18:51:44.104Z,81.00
2017-09-09T18:54:11.967Z,82.40
2017-09-09T18:56:39.834Z,84.50
2017-09-09T18:59:07.698Z,85.70
2017-09-09T19:01:35.558Z,87.30
2017-09-09T19:04:03.424Z,89.30
2017-09-09T19:06:31.287Z,90.30
2017-09-09T19:08:59.111Z,90.10
2017-09-09T19:11:26.912Z,89.50
2017-09-09T19:13:54.753Z,89.40
2017-09-09T19:16:22.538Z,89.60
2017-09-09T19:18:50.400Z,89.70
2017-09-09T19:21:18.371Z,90.30
2017-09-09T19:23:46.235Z,90.40
2017-09-09T19:26:14.099Z,90.50
2017-09-09T19:28:41.961Z,90.90
2017-09-09T19:31:09.831Z,90.90
2017-09-09T19:33:37.688Z,91.10
2017-09-09T19:36:06.583Z,91.40
2017-09-09T19:38:34.566Z,92.00
2017-09-09T19:41:03.088Z,93.00
2017-09-09T19:43:30.885Z,93.00
2017-09-09T19:45:58.852Z,94.10
2017-09-09T19:48:26.713Z,94.90
2017-09-09T19:50:54.578Z,94.70
2017-09-09T19:53:22.441Z,93.90
2017-09-09T19:55:50.306Z,93.50
2017-09-09T19:58:18.170Z,93.90
2017-09-09T20:00:46.034Z,94.70
2017-09-09T20:03:13.897Z,95.30
2017-09-09T20:05:41.662Z,95.60
2017-09-09T20:08:09.523Z,95.60
2017-09-09T20:10:37.389Z,96.60
2017-09-09T20:13:05.251Z,95.90
2017-09-09T20:15:33.080Z,96.20
2017-09-09T20:18:00.881Z,96.30
2017-09-09T20:20:28.742Z,96.80
2017-09-09T20:22:56.603Z,97.10
2017-09-09T20:25:24.476Z,97.70
2017-09-09T20:27:52.332Z,97.90
2017-09-09T20:30:20.196Z,98.40
2017-09-09T20:32:48.059Z,99.00
2017-09-09T20:35:15.923Z,99.10
2017-09-09T20:37:43.788Z,99.30
2017-09-09T20:40:11.651Z,99.60
2017-09-09T20:42:39.515Z,99.80
2017-09-09T20:45:07.378Z,99.50
2017-09-09T20:47:35.243Z,99.70
2017-09-09T20:50:03.072Z,99.90
2017-09-09T20:52:30.971Z,99.90
2017-09-09T20:54:58.835Z,99.90
2017-09-09T20:57:26.699Z,99.90
2017-09-09T20:59:55.380Z,99.90
2017-09-09T21:02:23.246Z,99.90
2017-09-09T21:04:51.075Z,99.90
2017-09-09T21:07:18.873Z,99.90
2017-09-09T21:09:46.735Z,99.90
2017-09-09T21:12:14.599Z,99.90
2017-09-09T21:14:42.463Z,99.90
2017-09-09T21:17:10.334Z,99.90
2017-09-09T21:19:38.191Z,99.90
2017-09-09T21:22:06.057Z,99.90
2017-09-09T21:24:33.923Z,99.90
2017-09-09T21:27:01.782Z,99.90
2017-09-09T21:29:29.647Z,99.90
2017-09-09T21:31:57.511Z,99.90
2017-09-09T21:34:25.376Z,99.90
2017-09-09T21:36:53.247Z,99.90
2017-09-09T21:39:21.073Z,99.90
2017-09-09T21:41:48.967Z,99.90
2017-09-09T21:44:16.831Z,99.90
2017-09-09T21:46:44.693Z,99.90
2017-09-09T21:49:12.557Z,99.90
2017-09-09T21:51:40.423Z,99.90
2017-09-09T21:54:08.286Z,99.90
2017-09-09T21:56:36.150Z,99.90
2017-09-09T21:59:04.014Z,99.90
2017-09-09T22:01:31.876Z,99.90
2017-09-09T22:03:59.741Z,99.90
2017-09-09T22:06:27.605Z,99.90
2017-09-09T22:08:55.468Z,99.90
2017-09-09T22:11:23.333Z,99.90
2017-09-09T22:13:51.196Z,99.90
2017-09-09T22:16:19.023Z,99.90
2017-09-09T22:18:46.927Z,99.90
2017-09-09T22:21:14.788Z,99.90
2017-09-09T22:23:42.652Z,99.90
2017-09-09T22:26:10.516Z,99.90
2017-09-09T22:28:38.343Z,99.90
2017-09-09T22:31:06.245Z,99.50
2017-09-09T22:33:34.108Z,98.10
2017-09-09T22:36:01.973Z,97.20
2017-09-09T22:38:29.839Z,96.30
2017-09-09T22:40:57.596Z,95.80
2017-09-09T22:43:25.461Z,95.80
2017-09-09T22:45:53.331Z,96.00
2017-09-09T22:48:21.190Z,95.90
2017-09-09T22:50:49.016Z,95.90
2017-09-09T22:53:16.814Z,96.00
2017-09-09T22:55:44.678Z,95.90
2017-09-09T22:58:12.542Z,95.80
2017-09-09T23:00:40.406Z,95.90
2017-09-09T23:03:08.270Z,95.80
2017-09-09T23:05:36.134Z,96.00
2017-09-09T23:08:03.999Z,96.30
2017-09-09T23:10:31.862Z,96.40
2017-09-09T23:12:59.726Z,96.20
2017-09-09T23:15:27.488Z,96.20
2017-09-09T23:17:55.351Z,96.20
2017-09-09T23:20:23.216Z,96.30
2017-09-09T23:22:51.079Z,96.60
2017-09-09T23:25:18.944Z,96.60
2017-09-09T23:27:47.525Z,96.80
2017-09-09T23:30:15.489Z,96.50
2017-09-09T23:32:44.173Z,96.50
2017-09-09T23:35:12.036Z,96.50
2017-09-09T23:37:39.901Z,96.50
2017-09-09T23:40:07.765Z,96.60
2017-09-09T23:42:35.528Z,96.90
2017-09-09T23:45:03.391Z,97.00
2017-09-09T23:47:31.253Z,97.10
2017-09-09T23:49:59.119Z,96.90
2017-09-09T23:52:26.943Z,97.00
2017-09-09T23:54:54.745Z,97.10
2017-09-09T23:57:22.608Z,97.40
2017-09-09T23:59:50.471Z,97.50
